Time;durP1;ratioP1;P1;durP2;ratioP2;P2;SDS_P1;SDS_P2;PMS_P1;PMS_P2;Temp;Humidity;BMP_temperature;BMP_pressure;BME280_temperature;BME280_humidity;BME280_pressure;Samples;Min_cycle;Max_cycle;Signal;HPM_P1;HPM_P2
2021/07/15 00:00:15;;;;;;;8.10;7.50;;;23.00;99.90;;;;;;5073652;28;20462;-61
2021/07/15 00:02:42;;;;;;;9.63;8.93;;;23.00;99.90;;;;;;5073891;28;21198;-61
2021/07/15 00:05:13;;;;;;;9.53;8.90;;;23.00;99.90;;;;;;5073488;28;21024;-61
2021/07/15 00:07:40;;;;;;;8.97;8.30;;;23.00;99.90;;;;;;5062138;28;20462;-60
2021/07/15 00:10:12;;;;;;;9.00;8.30;;;23.00;99.90;;;;;;5057882;28;20467;-61
2021/07/15 00:12:43;;;;;;;9.63;8.40;;;22.90;99.90;;;;;;5068807;28;20536;-61
2021/07/15 00:15:13;;;;;;;9.50;8.80;;;23.00;99.90;;;;;;5061097;28;20470;-61
2021/07/15 00:17:40;;;;;;;10.30;9.57;;;22.90;99.90;;;;;;5062322;28;20842;-60
2021/07/15 00:20:14;;;;;;;9.67;8.97;;;23.00;99.90;;;;;;5070447;28;20466;-61
2021/07/15 00:22:42;;;;;;;10.93;10.10;;;23.00;99.90;;;;;;5073406;28;20533;-60
2021/07/15 00:25:12;;;;;;;9.53;8.83;;;22.90;99.90;;;;;;5073752;28;20838;-60
2021/07/15 00:27:39;;;;;;;9.03;8.33;;;22.90;99.90;;;;;;5073039;28;20482;-60
2021/07/15 00:30:07;;;;;;;11.37;10.20;;;22.90;99.90;;;;;;5073604;28;20537;-61
2021/07/15 00:32:35;;;;;;;10.33;9.53;;;22.90;99.90;;;;;;5073259;28;20500;-61
2021/07/15 00:35:02;;;;;;;9.80;9.03;;;22.90;99.90;;;;;;5073429;28;20477;-61
2021/07/15 00:37:30;;;;;;;8.17;7.57;;;22.90;99.90;;;;;;5072915;28;20473;-61
2021/07/15 00:39:57;;;;;;;9.00;8.40;;;22.90;99.90;;;;;;5073720;28;20466;-61
2021/07/15 00:42:24;;;;;;;9.80;9.10;;;22.90;99.90;;;;;;5072929;28;20477;-61
2021/07/15 00:44:51;;;;;;;9.13;8.47;;;22.90;99.90;;;;;;5073283;28;20458;-61
2021/07/15 00:47:18;;;;;;;10.30;9.27;;;22.90;99.90;;;;;;5073406;28;20474;-62
2021/07/15 00:49:45;;;;;;;9.33;8.73;;;22.80;99.90;;;;;;5072875;28;20473;-61
2021/07/15 00:52:13;;;;;;;9.00;8.30;;;22.80;99.90;;;;;;5073023;28;20535;-61
2021/07/15 00:54:43;;;;;;;9.80;8.93;;;22.80;99.90;;;;;;5072940;28;20592;-61
2021/07/15 00:57:11;;;;;;;9.30;8.53;;;22.80;99.90;;;;;;5073224;28;20964;-61
2021/07/15 00:59:38;;;;;;;9.40;8.70;;;22.80;99.90;;;;;;5072503;28;20477;-62
2021/07/15 01:02:06;;;;;;;8.97;8.27;;;22.70;99.90;;;;;;5073277;28;20805;-61
2021/07/15 01:04:33;;;;;;;8.53;7.93;;;22.70;99.90;;;;;;5072625;28;20466;-61
2021/07/15 01:07:01;;;;;;;8.03;7.33;;;22.70;99.90;;;;;;5072817;28;20995;-61
2021/07/15 01:09:28;;;;;;;8.73;7.93;;;22.70;99.90;;;;;;5072661;28;20466;-61
2021/07/15 01:12:15;;;;;;;8.83;8.13;;;22.70;99.90;;;;;;5072879;28;21001;-61
2021/07/15 01:14:56;;;;;;;9.23;8.53;;;22.70;99.90;;;;;;5072517;28;20573;-61
2021/07/15 01:17:29;;;;;;;8.30;7.70;;;22.60;99.90;;;;;;5072321;28;20998;-58
2021/07/15 01:20:19;;;;;;;8.13;7.63;;;22.60;99.90;;;;;;5072679;28;20465;-61
2021/07/15 01:22:55;;;;;;;6.90;6.30;;;22.60;99.90;;;;;;5072326;28;20486;-61
2021/07/15 01:25:49;;;;;;;7.77;7.27;;;22.60;99.90;;;;;;5072698;28;20474;-61
2021/07/15 01:28:26;;;;;;;8.00;7.40;;;22.60;99.90;;;;;;5072211;28;20546;-61
2021/07/15 01:30:59;;;;;;;7.10;6.60;;;22.60;99.90;;;;;;5072997;28;20545;-60
2021/07/15 01:33:29;;;;;;;7.63;7.13;;;22.60;99.90;;;;;;5072366;28;20577;-61
2021/07/15 01:36:00;;;;;;;7.23;6.63;;;22.60;99.90;;;;;;5072766;28;20496;-61
2021/07/15 01:38:32;;;;;;;6.80;6.30;;;22.60;99.90;;;;;;5072169;28;20829;-61
2021/07/15 01:41:03;;;;;;;7.37;6.77;;;22.60;99.90;;;;;;5072753;28;20671;-61
2021/07/15 01:43:34;;;;;;;7.07;6.50;;;22.50;99.90;;;;;;5072109;28;20469;-61
2021/07/15 01:46:03;;;;;;;6.80;6.30;;;22.50;99.90;;;;;;5072788;28;20458;-60
2021/07/15 01:48:31;;;;;;;8.83;6.50;;;22.50;99.90;;;;;;5072261;28;20466;-61
2021/07/15 01:50:59;;;;;;;6.60;6.20;;;22.50;99.90;;;;;;5072533;28;20463;-61
2021/07/15 01:53:27;;;;;;;6.20;5.80;;;22.50;99.90;;;;;;5071946;28;20533;-61
2021/07/15 01:55:56;;;;;;;6.33;5.83;;;22.50;99.90;;;;;;5072810;28;20462;-61
2021/07/15 01:58:24;;;;;;;6.00;5.50;;;22.50;99.90;;;;;;5071776;28;20481;-61
2021/07/15 02:00:51;;;;;;;5.63;5.23;;;22.50;99.90;;;;;;5072648;28;20477;-61
2021/07/15 02:03:20;;;;;;;7.13;6.63;;;22.50;99.90;;;;;;5072119;28;20466;-61
2021/07/15 02:05:47;;;;;;;6.30;5.70;;;22.40;99.90;;;;;;5072146;28;20524;-61
2021/07/15 02:08:16;;;;;;;6.13;5.67;;;22.40;99.90;;;;;;5071835;28;20477;-60
2021/07/15 02:10:43;;;;;;;6.90;6.30;;;22.40;99.90;;;;;;5072601;28;20786;-61
2021/07/15 02:13:11;;;;;;;7.47;6.87;;;22.40;99.90;;;;;;5072008;28;20474;-61
2021/07/15 02:15:39;;;;;;;5.60;5.20;;;22.40;99.90;;;;;;5072489;28;20785;-60
2021/07/15 02:18:11;;;;;;;6.13;5.73;;;22.30;99.90;;;;;;5072133;28;20948;-61
2021/07/15 02:20:41;;;;;;;7.73;6.97;;;22.40;99.90;;;;;;5052129;28;20455;-61
2021/07/15 02:23:09;;;;;;;7.30;6.80;;;22.30;99.90;;;;;;5053489;28;20467;-60
2021/07/15 02:25:38;;;;;;;7.00;6.50;;;22.30;99.90;;;;;;5055765;28;20952;-61
2021/07/15 02:28:07;;;;;;;7.17;6.67;;;22.30;99.90;;;;;;5055914;28;20471;-61
2021/07/15 02:30:34;;;;;;;8.13;7.37;;;22.30;99.90;;;;;;5055450;28;20540;-61
2021/07/15 02:33:04;;;;;;;6.57;5.83;;;22.30;99.90;;;;;;5061212;28;21017;-61
2021/07/15 02:35:37;;;;;;;6.33;5.93;;;22.20;99.90;;;;;;5075634;28;20983;-61
2021/07/15 02:38:09;;;;;;;6.60;5.90;;;22.20;99.90;;;;;;5075576;28;20560;-62
2021/07/15 02:40:36;;;;;;;6.53;6.07;;;22.20;99.90;;;;;;5075502;28;20496;-60
2021/07/15 02:43:05;;;;;;;6.07;5.67;;;22.10;99.90;;;;;;5075807;28;20470;-61
2021/07/15 02:45:32;;;;;;;6.63;6.03;;;22.10;99.90;;;;;;5075080;28;20473;-61
2021/07/15 02:47:59;;;;;;;7.90;7.20;;;22.10;99.90;;;;;;5075748;28;20458;-61
2021/07/15 02:50:28;;;;;;;5.97;5.57;;;22.00;99.90;;;;;;5075380;28;20979;-61
2021/07/15 02:52:56;;;;;;;7.63;7.00;;;22.00;99.90;;;;;;5075733;28;20800;-61
2021/07/15 02:55:27;;;;;;;6.93;6.43;;;22.00;99.90;;;;;;5075200;28;20474;-61
2021/07/15 02:58:01;;;;;;;6.47;6.07;;;22.00;99.90;;;;;;5075446;28;20466;-61
2021/07/15 03:00:32;;;;;;;7.50;7.00;;;21.90;99.90;;;;;;5075223;28;20485;-61
2021/07/15 03:03:05;;;;;;;7.00;6.50;;;21.90;99.90;;;;;;5075474;28;20916;-62
2021/07/15 03:05:36;;;;;;;7.30;6.70;;;21.90;99.90;;;;;;5074854;28;20466;-61
2021/07/15 03:08:06;;;;;;;6.17;5.77;;;21.90;99.90;;;;;;5075425;28;20470;-61
2021/07/15 03:10:35;;;;;;;6.90;6.33;;;21.90;99.90;;;;;;5074810;28;20493;-62
2021/07/15 03:13:08;;;;;;;6.97;6.37;;;21.90;99.90;;;;;;5075226;28;20546;-61
2021/07/15 03:15:37;;;;;;;6.17;5.67;;;21.80;99.90;;;;;;5075058;28;20520;-62
2021/07/15 03:18:07;;;;;;;6.80;6.20;;;21.80;99.90;;;;;;5075054;28;20527;-61
2021/07/15 03:20:35;;;;;;;6.10;5.70;;;21.80;99.90;;;;;;5074723;28;20715;-62
2021/07/15 03:23:06;;;;;;;7.17;6.50;;;21.80;99.90;;;;;;5075039;28;20519;-61
2021/07/15 03:25:36;;;;;;;7.13;6.53;;;21.80;99.90;;;;;;5074841;28;20553;-61
2021/07/15 03:28:09;;;;;;;7.80;7.10;;;21.80;99.90;;;;;;5074789;28;20968;-61
2021/07/15 03:30:37;;;;;;;7.07;6.47;;;21.70;99.90;;;;;;5074548;28;20964;-61
2021/07/15 03:33:04;;;;;;;8.13;7.43;;;21.70;99.90;;;;;;5074767;28;20466;-62
2021/07/15 03:35:32;;;;;;;8.20;7.50;;;21.70;99.90;;;;;;5073078;28;20543;-61
2021/07/15 03:38:00;;;;;;;8.40;7.70;;;21.70;99.90;;;;;;5074628;28;20991;-61
2021/07/15 03:40:28;;;;;;;7.67;7.07;;;21.70;99.90;;;;;;5074308;28;20478;-61
2021/07/15 03:42:58;;;;;;;6.80;6.30;;;21.70;99.90;;;;;;5074853;28;20470;-61
2021/07/15 03:45:27;;;;;;;7.47;6.87;;;21.70;99.90;;;;;;5074030;28;20960;-61
2021/07/15 03:47:57;;;;;;;6.80;6.30;;;21.60;99.90;;;;;;5074765;28;20863;-61
2021/07/15 03:50:25;;;;;;;7.50;6.90;;;21.60;99.90;;;;;;5074242;28;20839;-61
2021/07/15 03:52:54;;;;;;;8.17;7.57;;;21.70;99.90;;;;;;5074281;28;20467;-61
2021/07/15 03:55:24;;;;;;;7.70;7.00;;;21.70;99.90;;;;;;5074298;28;20607;-62
2021/07/15 03:57:53;;;;;;;8.03;7.33;;;21.70;99.90;;;;;;5062905;28;20525;-61
2021/07/15 04:00:23;;;;;;;6.97;6.17;;;21.70;99.90;;;;;;5054399;28;20491;-61
2021/07/15 04:02:52;;;;;;;7.33;6.73;;;21.70;99.90;;;;;;5054047;28;20451;-61
2021/07/15 04:05:21;;;;;;;8.17;7.27;;;21.70;99.90;;;;;;5054608;28;21052;-61
2021/07/15 04:07:49;;;;;;;9.70;7.87;;;21.70;99.90;;;;;;5073644;28;20546;-61
2021/07/15 04:10:17;;;;;;;6.80;6.20;;;21.70;99.90;;;;;;5074121;28;20531;-61
2021/07/15 04:12:47;;;;;;;7.67;6.87;;;21.70;99.90;;;;;;5073954;28;20490;-61
2021/07/15 04:15:17;;;;;;;6.90;6.30;;;21.70;99.90;;;;;;5074031;28;20470;-62
2021/07/15 04:17:51;;;;;;;8.23;7.50;;;21.70;99.90;;;;;;5073503;28;20478;-61
2021/07/15 04:20:20;;;;;;;8.80;7.97;;;21.70;99.90;;;;;;5074043;28;20462;-62
2021/07/15 04:22:49;;;;;;;7.07;6.47;;;21.70;99.90;;;;;;5073451;28;20496;-62
2021/07/15 04:25:19;;;;;;;9.60;8.10;;;21.70;99.90;;;;;;5073676;28;20466;-61
2021/07/15 04:27:49;;;;;;;11.50;9.23;;;21.70;99.90;;;;;;5073340;28;20482;-61
2021/07/15 04:30:18;;;;;;;9.60;8.40;;;21.70;99.90;;;;;;5073775;28;20517;-61
2021/07/15 04:32:49;;;;;;;10.37;9.27;;;21.70;99.90;;;;;;5073325;28;20474;-61
2021/07/15 04:35:17;;;;;;;10.77;9.73;;;21.70;99.90;;;;;;5055207;28;20546;-61
2021/07/15 04:37:46;;;;;;;8.67;7.87;;;21.60;99.90;;;;;;5053071;28;21016;-61
2021/07/15 04:40:17;;;;;;;8.57;7.87;;;21.60;99.90;;;;;;5053656;28;20947;-61
2021/07/15 04:42:45;;;;;;;7.70;7.00;;;21.70;99.90;;;;;;5053210;28;20471;-61
2021/07/15 04:45:13;;;;;;;8.97;8.07;;;21.70;99.90;;;;;;5053320;28;20826;-61
2021/07/15 04:47:42;;;;;;;8.07;7.20;;;21.70;99.90;;;;;;5053043;28;20475;-61
2021/07/15 04:50:14;;;;;;;7.63;6.77;;;21.70;99.90;;;;;;5053558;28;20471;-61
2021/07/15 04:52:42;;;;;;;7.70;7.03;;;21.70;99.90;;;;;;5052974;28;21003;-61
2021/07/15 04:55:10;;;;;;;8.57;6.00;;;21.70;99.90;;;;;;5053376;28;20470;-61
2021/07/15 04:57:38;;;;;;;7.67;6.70;;;21.70;99.90;;;;;;5052697;28;20495;-61
2021/07/15 05:00:07;;;;;;;5.53;5.13;;;21.70;99.90;;;;;;5053259;28;20467;-61
2021/07/15 05:02:35;;;;;;;6.67;6.07;;;21.70;99.90;;;;;;5052788;28;20464;-61
2021/07/15 05:05:03;;;;;;;5.70;5.30;;;21.80;99.90;;;;;;5052948;28;20517;-61
2021/07/15 05:07:32;;;;;;;6.53;5.93;;;21.80;99.90;;;;;;5071044;28;20854;-60
2021/07/15 05:09:59;;;;;;;7.90;5.83;;;21.70;99.90;;;;;;5073059;28;20470;-61
2021/07/15 05:12:26;;;;;;;5.43;5.03;;;21.80;99.90;;;;;;5073092;28;20493;-61
2021/07/15 05:14:53;;;;;;;6.30;5.67;;;21.80;99.90;;;;;;5072811;28;20458;-62
2021/07/15 05:17:20;;;;;;;4.47;4.17;;;21.80;99.90;;;;;;5072840;28;20575;-59
2021/07/15 05:19:47;;;;;;;6.50;4.70;;;21.80;99.90;;;;;;5072488;28;20983;-61
2021/07/15 05:22:14;;;;;;;4.60;4.20;;;21.80;99.90;;;;;;5072842;28;20470;-61
2021/07/15 05:24:42;;;;;;;4.17;3.87;;;21.80;99.90;;;;;;5072607;28;20813;-61
2021/07/15 05:27:10;;;;;;;4.43;4.13;;;21.80;99.90;;;;;;5072662;28;20469;-61
2021/07/15 05:29:37;;;;;;;4.60;4.30;;;21.90;99.90;;;;;;5072342;28;20470;-61
2021/07/15 05:32:04;;;;;;;3.67;3.37;;;21.80;99.90;;;;;;5072722;28;21129;-61
2021/07/15 05:34:31;;;;;;;3.43;3.23;;;21.90;99.90;;;;;;5072136;28;20875;-59
2021/07/15 05:36:58;;;;;;;4.03;3.73;;;21.90;99.90;;;;;;5072926;28;20777;-61
2021/07/15 05:39:25;;;;;;;4.13;3.83;;;21.90;99.90;;;;;;5072548;28;20524;-62
2021/07/15 05:41:53;;;;;;;5.10;4.60;;;22.00;99.90;;;;;;5072420;28;20466;-62
2021/07/15 05:44:21;;;;;;;5.00;4.43;;;22.00;99.90;;;;;;5064112;28;20467;-61
2021/07/15 05:46:47;;;;;;;4.90;4.50;;;22.00;99.90;;;;;;5051645;28;20647;-61
2021/07/15 05:49:14;;;;;;;6.07;4.60;;;22.00;99.90;;;;;;5052611;28;20505;-62
2021/07/15 05:51:46;;;;;;;5.43;4.90;;;22.00;99.90;;;;;;5052081;28;20479;-60
2021/07/15 05:54:13;;;;;;;5.70;4.93;;;22.10;99.90;;;;;;5052456;28;20814;-61
2021/07/15 05:56:40;;;;;;;6.50;5.90;;;22.10;99.90;;;;;;5051994;28;20471;-61
2021/07/15 05:59:08;;;;;;;7.30;6.03;;;22.10;99.90;;;;;;5055493;28;20482;-61
2021/07/15 06:01:35;;;;;;;7.83;5.70;;;22.20;99.90;;;;;;5056356;28;20473;-60
2021/07/15 06:04:02;;;;;;;10.77;6.43;;;22.20;99.90;;;;;;5056434;28;20454;-61
2021/07/15 06:06:29;;;;;;;6.00;5.40;;;22.30;99.90;;;;;;5066496;28;20991;-61
2021/07/15 06:08:56;;;;;;;7.10;6.40;;;22.40;99.90;;;;;;5075959;28;20470;-61
2021/07/15 06:11:23;;;;;;;7.97;6.33;;;22.40;99.90;;;;;;5076299;28;20462;-61
2021/07/15 06:13:50;;;;;;;5.23;4.70;;;22.60;99.90;;;;;;5075992;28;20462;-61
2021/07/15 06:16:18;;;;;;;4.23;3.93;;;22.70;99.90;;;;;;5076354;28;20462;-61
2021/07/15 06:18:45;;;;;;;6.20;3.50;;;22.80;99.90;;;;;;5075913;28;20477;-61
2021/07/15 06:21:12;;;;;;;4.10;3.80;;;22.90;99.90;;;;;;5076163;28;20489;-61
2021/07/15 06:23:39;;;;;;;3.43;3.23;;;23.00;99.90;;;;;;5075702;28;20463;-61
2021/07/15 06:26:05;;;;;;;3.27;3.07;;;23.20;99.90;;;;;;5076034;28;20466;-61
2021/07/15 06:28:33;;;;;;;4.37;3.30;;;23.30;99.90;;;;;;5075708;28;20478;-61
2021/07/15 06:31:00;;;;;;;4.13;2.90;;;23.40;99.90;;;;;;5075739;28;20916;-61
2021/07/15 06:33:28;;;;;;;3.40;3.10;;;23.60;99.90;;;;;;5075858;28;20465;-62
2021/07/15 06:35:56;;;;;;;3.50;3.20;;;23.70;99.90;;;;;;5075467;28;24733;-61
2021/07/15 06:38:26;;;;;;;3.63;3.33;;;23.90;99.90;;;;;;5075727;28;20968;-62
2021/07/15 06:40:56;;;;;;;4.30;2.93;;;24.00;99.90;;;;;;5075605;28;20459;-62
2021/07/15 06:43:23;;;;;;;4.07;3.10;;;24.20;99.90;;;;;;5075591;28;20816;-61
2021/07/15 06:45:50;;;;;;;5.40;3.60;;;24.30;99.90;;;;;;5075147;28;20466;-61
2021/07/15 06:48:17;;;;;;;4.77;3.30;;;24.40;99.90;;;;;;5075675;28;20466;-61
2021/07/15 06:50:45;;;;;;;6.83;2.73;;;24.60;99.90;;;;;;5075240;28;20474;-61
2021/07/15 06:53:12;;;;;;;3.87;3.40;;;24.80;99.70;;;;;;5075427;28;20477;-61
2021/07/15 06:55:40;;;;;;;5.83;4.40;;;24.90;99.10;;;;;;5075146;28;20459;-59
2021/07/15 06:58:07;;;;;;;3.90;3.50;;;25.00;98.60;;;;;;5075535;28;20466;-61
2021/07/15 07:00:35;;;;;;;3.87;3.57;;;25.20;98.40;;;;;;5075660;28;20476;-61
2021/07/15 07:03:02;;;;;;;4.23;3.83;;;25.20;98.20;;;;;;5074960;28;20458;-61
2021/07/15 07:05:29;;;;;;;4.00;3.60;;;25.30;98.10;;;;;;5075346;28;20478;-62
2021/07/15 07:07:58;;;;;;;3.77;3.40;;;25.40;97.80;;;;;;5074798;28;20470;-61
2021/07/15 07:10:25;;;;;;;4.17;3.63;;;25.60;97.30;;;;;;5075361;28;20551;-62
2021/07/15 07:12:52;;;;;;;3.60;3.30;;;25.70;96.90;;;;;;5058505;28;20471;-61
2021/07/15 07:15:20;;;;;;;5.27;3.67;;;25.80;96.90;;;;;;5055320;28;20459;-60
2021/07/15 07:17:47;;;;;;;3.10;2.90;;;25.90;96.70;;;;;;5054735;28;20865;-60
2021/07/15 07:20:16;;;;;;;3.30;3.00;;;26.00;96.40;;;;;;5055048;28;20467;-60
2021/07/15 07:22:43;;;;;;;2.37;2.17;;;26.00;96.30;;;;;;5054525;28;20474;-60
2021/07/15 07:25:14;;;;;;;3.13;2.90;;;26.00;96.30;;;;;;5055179;28;20471;-60
2021/07/15 07:27:41;;;;;;;4.30;2.23;;;26.10;96.30;;;;;;5054348;28;20832;-60
2021/07/15 07:30:11;;;;;;;3.20;2.90;;;26.20;96.20;;;;;;5055049;28;20840;-61
2021/07/15 07:32:38;;;;;;;3.77;3.37;;;26.30;96.00;;;;;;5056946;28;20467;-61
2021/07/15 07:35:06;;;;;;;3.83;2.87;;;26.50;95.70;;;;;;5074720;28;21251;-61
2021/07/15 07:37:33;;;;;;;2.43;2.23;;;26.60;95.40;;;;;;5074633;28;20469;-61
2021/07/15 07:40:01;;;;;;;2.27;2.07;;;26.80;95.20;;;;;;5074306;28;20442;-61
2021/07/15 07:42:29;;;;;;;2.57;2.03;;;26.90;94.90;;;;;;5074724;28;20474;-61
2021/07/15 07:44:56;;;;;;;2.53;2.33;;;27.00;94.80;;;;;;5074235;28;20512;-61
2021/07/15 07:47:23;;;;;;;2.60;2.40;;;27.10;94.50;;;;;;5074307;28;20482;-61
2021/07/15 07:49:50;;;;;;;4.47;3.80;;;27.20;94.50;;;;;;5073924;28;20467;-61
2021/07/15 07:52:17;;;;;;;3.47;3.17;;;27.30;93.80;;;;;;5074617;28;20948;-62
2021/07/15 07:54:44;;;;;;;4.90;2.57;;;27.40;93.70;;;;;;5074208;28;20523;-61
2021/07/15 07:57:11;;;;;;;2.40;1.97;;;27.50;93.50;;;;;;5074531;28;20489;-61
2021/07/15 07:59:39;;;;;;;2.50;2.40;;;27.70;93.40;;;;;;5074243;28;20477;-61
2021/07/15 08:02:07;;;;;;;3.57;2.20;;;27.80;93.00;;;;;;5073851;28;20975;-61
2021/07/15 08:04:34;;;;;;;2.40;2.07;;;27.90;93.00;;;;;;5074209;28;20848;-61
2021/07/15 08:07:02;;;;;;;2.37;1.73;;;27.90;92.70;;;;;;5073464;28;20500;-61
2021/07/15 08:09:31;;;;;;;2.83;2.13;;;28.00;92.70;;;;;;5073926;28;20964;-61
2021/07/15 08:11:58;;;;;;;2.90;2.60;;;28.10;92.50;;;;;;5073584;28;20539;-61
2021/07/15 08:14:25;;;;;;;4.07;3.73;;;28.20;92.40;;;;;;5074096;28;20463;-61
2021/07/15 08:16:53;;;;;;;2.83;2.57;;;28.40;92.30;;;;;;5073596;28;20475;-61
2021/07/15 08:19:21;;;;;;;2.47;2.27;;;28.40;92.20;;;;;;5073994;28;20793;-61
2021/07/15 08:21:48;;;;;;;2.43;2.23;;;28.60;91.80;;;;;;5072991;28;20549;-61
2021/07/15 08:24:15;;;;;;;2.80;2.60;;;28.70;91.80;;;;;;5073755;28;20466;-61
2021/07/15 08:26:42;;;;;;;4.00;2.20;;;28.70;91.60;;;;;;5073502;28;20467;-61
2021/07/15 08:29:09;;;;;;;2.10;2.00;;;28.80;91.10;;;;;;5073659;28;20470;-61
2021/07/15 08:31:36;;;;;;;2.17;2.07;;;28.80;91.10;;;;;;5073595;28;20474;-61
2021/07/15 08:34:05;;;;;;;2.00;1.90;;;28.80;91.10;;;;;;5073136;28;20470;-61
2021/07/15 08:36:32;;;;;;;2.97;2.77;;;28.80;90.80;;;;;;5073687;28;20470;-61
2021/07/15 08:38:59;;;;;;;2.53;2.33;;;28.60;90.80;;;;;;5072868;28;20513;-62
2021/07/15 08:41:26;;;;;;;2.20;2.10;;;28.50;90.90;;;;;;5073570;28;20493;-61
2021/07/15 08:43:54;;;;;;;2.60;2.40;;;28.40;91.00;;;;;;5073116;28;20473;-61
2021/07/15 08:46:22;;;;;;;4.43;2.80;;;28.30;91.40;;;;;;5073526;28;20982;-61
2021/07/15 08:48:50;;;;;;;3.60;2.43;;;28.20;91.40;;;;;;5072111;28;20501;-60
2021/07/15 08:51:19;;;;;;;3.10;2.90;;;28.10;91.60;;;;;;5053333;28;20542;-61
2021/07/15 08:53:49;;;;;;;2.90;2.70;;;28.00;91.70;;;;;;5053302;28;20475;-61
2021/07/15 08:59:00;;;;;;;2.93;2.73;;;28.00;91.90;;;;;;5052937;28;20537;-61
2021/07/15 09:01:28;;;;;;;3.27;3.00;;;28.00;91.90;;;;;;5053284;28;20463;-60
2021/07/15 09:03:55;;;;;;;3.70;3.40;;;28.00;91.50;;;;;;5052701;28;20470;-61
2021/07/15 09:06:24;;;;;;;3.53;2.90;;;28.00;91.30;;;;;;5062243;28;20519;-61
2021/07/15 09:08:52;;;;;;;2.57;2.43;;;28.10;90.90;;;;;;5072780;28;20474;-61
2021/07/15 09:11:19;;;;;;;3.10;2.90;;;28.00;91.20;;;;;;5072646;28;20466;-61
2021/07/15 09:13:46;;;;;;;2.13;2.03;;;28.00;91.00;;;;;;5072989;28;20467;-61
2021/07/15 09:16:14;;;;;;;3.57;3.23;;;28.00;91.00;;;;;;5072577;28;20528;-61
2021/07/15 09:19:02;;;;;;;3.30;3.00;;;28.00;91.20;;;;;;5072740;28;21018;-61
2021/07/15 09:21:33;;;;;;;2.73;2.53;;;27.90;91.60;;;;;;5072494;28;20454;-61
2021/07/15 09:24:00;;;;;;;2.30;2.10;;;27.90;91.80;;;;;;5072775;28;20470;-61
2021/07/15 09:26:33;;;;;;;2.90;2.70;;;28.00;91.60;;;;;;5072163;28;20465;-61
2021/07/15 09:29:14;;;;;;;2.90;2.70;;;28.00;91.60;;;;;;5072494;28;20501;-61
2021/07/15 09:31:52;;;;;;;4.73;3.40;;;28.00;91.70;;;;;;5072598;28;20482;-61
2021/07/15 09:34:19;;;;;;;5.50;3.30;;;28.00;91.30;;;;;;5071852;28;20494;-62
2021/07/15 09:36:48;;;;;;;4.00;3.70;;;28.00;91.30;;;;;;5072817;28;20473;-62
2021/07/15 09:39:20;;;;;;;2.33;2.17;;;28.00;91.70;;;;;;5071947;28;20466;-62
2021/07/15 09:42:11;;;;;;;3.13;2.83;;;28.00;91.40;;;;;;5072805;28;20466;-62
2021/07/15 09:44:39;;;;;;;3.10;2.67;;;28.00;91.30;;;;;;5072415;28;20473;-62
2021/07/15 09:47:07;;;;;;;3.23;2.57;;;28.00;91.20;;;;;;5072803;28;20454;-62
2021/07/15 09:49:35;;;;;;;3.83;3.30;;;28.10;91.20;;;;;;5072610;28;20532;-61
2021/07/15 09:52:04;;;;;;;3.23;3.00;;;28.10;91.20;;;;;;5072514;28;20461;-62
2021/07/15 09:54:31;;;;;;;3.10;2.80;;;28.10;91.20;;;;;;5072631;28;20474;-62
2021/07/15 09:56:58;;;;;;;5.60;5.10;;;28.10;91.00;;;;;;5072052;28;20767;-61
2021/07/15 09:59:25;;;;;;;6.00;4.07;;;28.10;91.10;;;;;;5072533;28;20478;-61
2021/07/15 10:01:53;;;;;;;4.03;2.60;;;28.10;91.30;;;;;;5072261;28;20857;-61
2021/07/15 10:04:26;;;;;;;2.90;2.40;;;28.10;91.10;;;;;;5072232;28;20469;-61
2021/07/15 10:06:54;;;;;;;4.47;2.60;;;28.10;91.10;;;;;;5071904;28;20547;-62
2021/07/15 10:09:25;;;;;;;2.30;2.10;;;28.00;91.10;;;;;;5072282;28;20466;-62
2021/07/15 10:11:56;;;;;;;4.90;3.23;;;28.10;91.20;;;;;;5071998;28;20466;-60
2021/07/15 10:14:36;;;;;;;3.40;2.97;;;28.10;91.10;;;;;;5072221;28;20964;-60
2021/07/15 10:17:03;;;;;;;3.57;3.37;;;28.10;91.10;;;;;;5071969;28;20507;-61
2021/07/15 10:19:30;;;;;;;3.47;3.27;;;28.10;90.80;;;;;;5072342;28;20485;-60
2021/07/15 10:21:58;;;;;;;2.80;2.70;;;28.10;90.70;;;;;;5071907;28;20484;-60
2021/07/15 10:24:27;;;;;;;3.10;2.90;;;28.20;90.60;;;;;;5072210;28;20557;-61
2021/07/15 10:26:56;;;;;;;2.97;2.67;;;28.10;90.80;;;;;;5064966;28;20475;-61
2021/07/15 10:29:23;;;;;;;5.53;3.07;;;28.20;90.60;;;;;;5052087;28;20463;-61
2021/07/15 10:31:51;;;;;;;4.00;2.80;;;28.20;90.70;;;;;;5051597;28;20479;-61
2021/07/15 10:34:19;;;;;;;3.20;3.00;;;28.20;90.70;;;;;;5067909;28;20470;-62
2021/07/15 10:36:46;;;;;;;3.23;3.03;;;28.10;90.60;;;;;;5071774;28;20469;-61
2021/07/15 10:39:15;;;;;;;4.43;3.93;;;28.20;90.70;;;;;;5072037;28;20512;-62
2021/07/15 10:41:48;;;;;;;3.57;3.27;;;28.20;90.80;;;;;;5071624;28;20470;-62
2021/07/15 10:44:15;;;;;;;4.60;4.20;;;28.20;90.70;;;;;;5073295;28;20462;-60
2021/07/15 10:46:43;;;;;;;2.80;2.60;;;28.20;90.40;;;;;;5075286;28;20474;-60
2021/07/15 10:49:12;;;;;;;3.00;2.60;;;28.20;90.60;;;;;;5075762;28;20476;-59
2021/07/15 10:51:41;;;;;;;2.80;2.60;;;28.30;90.40;;;;;;5075786;28;21117;-61
2021/07/15 10:54:08;;;;;;;3.33;3.07;;;28.30;90.00;;;;;;5075213;28;20466;-61
2021/07/15 10:56:35;;;;;;;7.83;3.50;;;28.40;89.90;;;;;;5075634;28;20469;-61
2021/07/15 10:59:04;;;;;;;2.80;2.60;;;28.40;90.00;;;;;;5075087;28;20478;-62
2021/07/15 11:01:43;;;;;;;4.00;2.93;;;28.40;89.90;;;;;;5075693;28;20466;-62
2021/07/15 11:04:12;;;;;;;3.13;2.93;;;28.40;89.90;;;;;;5075010;28;20460;-62
2021/07/15 11:06:41;;;;;;;2.83;2.43;;;28.40;89.80;;;;;;5075597;28;20496;-61
2021/07/15 11:09:11;;;;;;;3.53;3.23;;;28.40;89.90;;;;;;5074745;28;20466;-62
2021/07/15 11:11:41;;;;;;;3.60;3.30;;;28.40;89.80;;;;;;5075136;28;20466;-62
2021/07/15 11:14:36;;;;;;;3.27;3.07;;;28.40;89.80;;;;;;5074973;28;20466;-62
2021/07/15 11:17:24;;;;;;;3.90;2.63;;;28.40;90.00;;;;;;5074675;28;20549;-61
2021/07/15 11:20:09;;;;;;;3.77;3.33;;;28.50;89.90;;;;;;5074755;28;20502;-61
2021/07/15 11:22:39;;;;;;;3.20;3.00;;;28.60;89.60;;;;;;5074848;28;20481;-61
2021/07/15 11:25:07;;;;;;;2.90;2.70;;;28.70;89.60;;;;;;5074597;28;20471;-61
2021/07/15 11:27:43;;;;;;;3.40;3.10;;;28.70;89.50;;;;;;5073624;28;20481;-61
2021/07/15 11:30:15;;;;;;;2.53;2.43;;;28.80;88.40;;;;;;5073682;28;20519;-62
2021/07/15 11:32:43;;;;;;;2.80;2.60;;;28.80;87.90;;;;;;5074319;28;20859;-62
2021/07/15 11:35:37;;;;;;;3.30;3.00;;;28.80;88.30;;;;;;5074373;28;20465;-62
2021/07/15 11:38:12;;;;;;;3.17;2.97;;;28.90;89.10;;;;;;5038874;28;20474;-61
2021/07/15 11:40:47;;;;;;;3.30;3.00;;;28.90;88.60;;;;;;5074769;28;20469;-61
2021/07/15 11:43:20;;;;;;;2.67;2.57;;;28.90;88.90;;;;;;5074394;28;20454;-61
2021/07/15 11:46:14;;;;;;;3.20;3.00;;;28.80;88.00;;;;;;5054855;28;20482;-62
2021/07/15 11:49:05;;;;;;;2.70;2.50;;;28.80;88.40;;;;;;5054284;28;20459;-61
2021/07/15 11:51:38;;;;;;;2.40;2.20;;;28.80;88.90;;;;;;5054249;28;20467;-61
2021/07/15 11:54:23;;;;;;;3.07;2.77;;;28.80;88.90;;;;;;5054265;28;20467;-61
2021/07/15 11:56:52;;;;;;;3.00;2.80;;;28.80;88.70;;;;;;5053262;28;20811;-61
2021/07/15 11:59:39;;;;;;;4.87;4.43;;;28.80;89.80;;;;;;5053786;28;20475;-61
2021/07/15 12:02:10;;;;;;;3.60;3.40;;;28.80;88.40;;;;;;5053848;28;20800;-62
2021/07/15 12:05:10;;;;;;;4.10;3.80;;;28.80;88.80;;;;;;5053210;28;20933;-61
2021/07/15 12:07:38;;;;;;;3.27;2.97;;;28.80;89.00;;;;;;5072261;28;20458;-62
2021/07/15 12:10:08;;;;;;;3.10;2.90;;;28.80;88.30;;;;;;5073283;28;20855;-62
2021/07/15 12:12:39;;;;;;;3.00;2.80;;;28.80;87.90;;;;;;5072820;28;20455;-62
2021/07/15 12:15:13;;;;;;;3.10;2.80;;;28.80;88.20;;;;;;5074196;28;20554;-61
2021/07/15 12:17:42;;;;;;;3.20;3.03;;;28.90;88.00;;;;;;5073556;28;20458;-61
2021/07/15 12:20:10;;;;;;;3.20;3.00;;;28.90;87.80;;;;;;5074094;28;20975;-61
2021/07/15 12:22:53;;;;;;;4.57;4.20;;;28.90;87.50;;;;;;5073566;28;20454;-61
2021/07/15 12:25:23;;;;;;;3.23;3.03;;;29.00;86.70;;;;;;5073530;28;20450;-62
2021/07/15 12:27:52;;;;;;;4.30;4.00;;;29.00;86.30;;;;;;5061909;28;20892;-60
2021/07/15 12:30:21;;;;;;;4.80;4.40;;;29.00;86.20;;;;;;5053200;28;20479;-60
2021/07/15 12:32:57;;;;;;;3.53;3.23;;;29.00;86.40;;;;;;5057068;28;20455;-61
2021/07/15 12:35:26;;;;;;;3.43;3.13;;;28.90;85.30;;;;;;5073265;28;20473;-62
2021/07/15 12:37:53;;;;;;;3.77;3.27;;;28.90;85.10;;;;;;5073068;28;21029;-61
2021/07/15 12:40:26;;;;;;;3.00;2.80;;;28.90;85.60;;;;;;5073264;28;20855;-62
2021/07/15 12:42:53;;;;;;;3.27;3.03;;;28.90;85.60;;;;;;5073609;28;20991;-61
2021/07/15 12:45:22;;;;;;;3.13;2.90;;;28.90;86.10;;;;;;5073041;28;20524;-60
2021/07/15 12:48:05;;;;;;;2.90;2.70;;;28.90;86.10;;;;;;5073284;28;20466;-61
2021/07/15 12:50:32;;;;;;;5.47;4.60;;;28.90;86.40;;;;;;5073178;28;20458;-61
2021/07/15 12:53:14;;;;;;;3.83;3.53;;;28.90;86.10;;;;;;5073363;28;20466;-61
2021/07/15 12:55:43;;;;;;;3.90;3.60;;;28.90;86.10;;;;;;5072890;28;20470;-61
2021/07/15 12:58:10;;;;;;;4.67;4.27;;;28.90;86.10;;;;;;5073095;28;20840;-62
2021/07/15 13:00:39;;;;;;;4.00;3.70;;;28.90;85.80;;;;;;5072796;28;20470;-62